Time;durP1;ratioP1;P1;durP2;ratioP2;P2;SDS_P1;SDS_P2;PMS_P1;PMS_P2;Temp;Humidity;BMP_temperature;BMP_pressure;BME280_temperature;BME280_humidity;BME280_pressure;Samples;Min_cycle;Max_cycle;Signal;HPM_P1;HPM_P2
2021/03/22 00:02:02;;;;;;;22.60;14.50;;;5.00;99.90;;;;;;5125052;27;20474;-75
2021/03/22 00:04:29;;;;;;;16.53;11.10;;;4.90;99.90;;;;;;5120912;27;20472;-74
2021/03/22 00:06:55;;;;;;;24.93;14.27;;;4.80;99.90;;;;;;5122488;27;20475;-77
2021/03/22 00:09:21;;;;;;;18.93;13.87;;;4.80;99.90;;;;;;5122857;27;20453;-78
2021/03/22 00:11:49;;;;;;;18.47;14.93;;;4.90;99.90;;;;;;5123229;27;20480;-73
2021/03/22 00:14:16;;;;;;;24.83;13.60;;;4.90;99.90;;;;;;5124339;27;20462;-74
2021/03/22 00:16:43;;;;;;;16.63;13.70;;;4.90;99.90;;;;;;5120290;27;20460;-74
2021/03/22 00:19:10;;;;;;;24.63;13.67;;;4.80;99.90;;;;;;5122180;27;20461;-72
2021/03/22 00:21:37;;;;;;;28.27;14.57;;;4.80;99.90;;;;;;5116934;27;20468;-74
2021/03/22 00:24:04;;;;;;;24.50;14.40;;;4.70;99.90;;;;;;5118644;27;20475;-76
2021/03/22 00:26:32;;;;;;;20.30;13.53;;;4.70;99.90;;;;;;5122425;27;20535;-72
2021/03/22 00:28:58;;;;;;;26.43;14.70;;;4.70;99.90;;;;;;5119268;27;20463;-77
2021/03/22 00:31:25;;;;;;;15.57;13.13;;;4.80;99.90;;;;;;5120893;27;20459;-72
2021/03/22 00:33:51;;;;;;;25.37;13.43;;;4.70;99.90;;;;;;5122065;27;20452;-75
2021/03/22 00:36:17;;;;;;;18.30;14.23;;;4.70;99.90;;;;;;5122634;27;20464;-75
2021/03/22 00:38:45;;;;;;;23.80;14.77;;;4.70;99.90;;;;;;5124838;27;20960;-74
2021/03/22 00:41:12;;;;;;;18.10;13.50;;;4.70;99.90;;;;;;5119943;27;20467;-74
2021/03/22 00:43:40;;;;;;;22.13;13.73;;;4.80;99.90;;;;;;5119091;27;20488;-75
2021/03/22 00:46:07;;;;;;;22.77;13.70;;;4.80;99.90;;;;;;5119269;27;20455;-75
2021/03/22 00:48:35;;;;;;;29.03;14.90;;;4.80;99.90;;;;;;5118327;27;20461;-75
2021/03/22 00:51:04;;;;;;;28.97;14.47;;;4.70;99.90;;;;;;5107157;27;20456;-74
2021/03/22 00:53:30;;;;;;;28.87;14.03;;;4.70;99.90;;;;;;5115307;27;20482;-74
2021/03/22 00:55:58;;;;;;;26.87;13.80;;;4.80;99.90;;;;;;5123564;27;20508;-74
2021/03/22 00:58:24;;;;;;;21.33;14.67;;;4.70;99.90;;;;;;5119775;27;20452;-76
2021/03/22 01:00:52;;;;;;;21.87;12.93;;;4.70;99.90;;;;;;5121372;27;20515;-76
2021/03/22 01:03:20;;;;;;;17.00;13.40;;;4.70;99.90;;;;;;5122063;27;20552;-74
2021/03/22 01:05:47;;;;;;;25.77;13.90;;;4.70;99.90;;;;;;5122096;27;20461;-76
2021/03/22 01:08:14;;;;;;;36.40;14.10;;;4.80;99.90;;;;;;5121152;27;20502;-76
2021/03/22 01:10:43;;;;;;;30.00;13.37;;;4.70;99.90;;;;;;5120511;27;20452;-77
2021/03/22 01:13:13;;;;;;;21.60;13.70;;;4.60;99.90;;;;;;5120404;27;20488;-76
2021/03/22 01:15:41;;;;;;;22.67;13.80;;;4.60;99.90;;;;;;5121535;27;20528;-76
2021/03/22 01:18:08;;;;;;;33.40;13.97;;;4.70;99.90;;;;;;5121378;27;20453;-72
2021/03/22 01:20:40;;;;;;;22.30;13.23;;;4.60;99.90;;;;;;5116170;27;20484;-76
2021/03/22 01:23:07;;;;;;;20.87;14.90;;;4.50;99.90;;;;;;5120055;27;20468;-71
2021/03/22 01:25:35;;;;;;;27.27;14.20;;;4.50;99.90;;;;;;5121169;27;20462;-76
2021/03/22 01:28:03;;;;;;;33.73;14.20;;;4.40;99.90;;;;;;5119653;27;20453;-74
2021/03/22 01:30:38;;;;;;;17.60;13.20;;;4.30;99.90;;;;;;5117035;27;20459;-75
2021/03/22 01:33:09;;;;;;;20.83;14.47;;;4.20;99.90;;;;;;5119553;27;20497;-73
2021/03/22 01:35:36;;;;;;;16.83;14.23;;;4.10;99.90;;;;;;5108377;27;21156;-74
2021/03/22 01:38:04;;;;;;;20.13;14.13;;;3.90;99.90;;;;;;5118619;27;20468;-73
2021/03/22 01:40:51;;;;;;;35.43;14.30;;;3.80;99.90;;;;;;5120640;27;20469;-76
2021/03/22 01:43:32;;;;;;;23.50;13.53;;;3.80;99.90;;;;;;5118378;27;20972;-75
2021/03/22 01:45:59;;;;;;;18.00;13.90;;;3.60;99.90;;;;;;5119507;27;20475;-73
2021/03/22 01:48:29;;;;;;;18.30;13.70;;;3.50;99.90;;;;;;5122949;27;20547;-76
2021/03/22 01:50:55;;;;;;;17.43;14.00;;;3.40;99.90;;;;;;5098967;28;20853;-77
2021/03/22 01:53:22;;;;;;;15.37;13.10;;;3.40;99.90;;;;;;5119437;27;20491;-74
2021/03/22 01:55:49;;;;;;;27.07;13.50;;;3.30;99.90;;;;;;5119099;27;20449;-72
2021/03/22 01:58:17;;;;;;;17.57;12.77;;;3.20;99.90;;;;;;5118012;27;20500;-73
2021/03/22 02:00:44;;;;;;;23.27;13.50;;;3.30;99.90;;;;;;5123909;27;20469;-77
2021/03/22 02:03:14;;;;;;;18.17;11.90;;;3.20;99.90;;;;;;5119542;27;21253;-73
2021/03/22 02:05:44;;;;;;;25.27;12.63;;;3.20;99.90;;;;;;5118957;27;20919;-74
2021/03/22 02:08:13;;;;;;;23.43;12.70;;;3.10;99.90;;;;;;5119090;27;20484;-72
2021/03/22 02:10:41;;;;;;;28.57;14.23;;;3.10;99.90;;;;;;5120628;27;20982;-74
2021/03/22 02:13:09;;;;;;;26.33;12.70;;;3.10;99.90;;;;;;5123964;27;20517;-74
2021/03/22 02:15:38;;;;;;;15.10;13.50;;;3.10;99.90;;;;;;5123065;27;20463;-72
2021/03/22 02:18:11;;;;;;;30.50;14.10;;;3.10;99.90;;;;;;5123915;27;20466;-71
2021/03/22 02:21:25;;;;;;;27.13;13.73;;;3.10;99.90;;;;;;5119033;27;20567;-72
2021/03/22 02:24:35;;;;;;;25.33;13.43;;;2.90;99.90;;;;;;5119996;27;20464;-73
2021/03/22 02:27:37;;;;;;;18.90;13.30;;;2.90;99.90;;;;;;5118435;27;20559;-73
2021/03/22 02:30:40;;;;;;;35.50;13.40;;;2.80;99.90;;;;;;5115741;27;20462;-74
2021/03/22 02:33:30;;;;;;;22.67;12.40;;;2.80;99.90;;;;;;5102189;27;20615;-71
2021/03/22 02:36:07;;;;;;;14.47;11.63;;;2.70;99.90;;;;;;5121381;27;20461;-74
2021/03/22 02:38:37;;;;;;;16.23;11.43;;;2.60;99.90;;;;;;5120847;27;20494;-73
2021/03/22 02:41:09;;;;;;;21.47;12.37;;;2.60;99.90;;;;;;5118383;27;20449;-72
2021/03/22 02:43:37;;;;;;;23.50;11.90;;;2.70;99.90;;;;;;5118795;27;20471;-73
2021/03/22 02:46:05;;;;;;;20.77;11.80;;;2.70;99.90;;;;;;5120969;27;20452;-74
2021/03/22 02:48:33;;;;;;;23.80;11.03;;;2.80;99.90;;;;;;5118232;27;20494;-75
2021/03/22 02:51:08;;;;;;;32.87;12.10;;;2.90;99.90;;;;;;5116756;27;20456;-73
2021/03/22 02:53:44;;;;;;;19.53;12.67;;;3.00;99.90;;;;;;5114953;27;20507;-72
2021/03/22 02:56:26;;;;;;;29.37;12.70;;;3.00;99.90;;;;;;5111948;27;20542;-76
2021/03/22 02:58:58;;;;;;;25.77;12.27;;;3.00;99.90;;;;;;5117818;27;20484;-75
2021/03/22 03:01:28;;;;;;;25.40;11.30;;;3.00;99.90;;;;;;5120660;27;20464;-72
2021/03/22 03:04:00;;;;;;;22.20;11.00;;;2.90;99.90;;;;;;5119419;27;20452;-74
2021/03/22 03:06:52;;;;;;;23.00;12.23;;;2.90;99.90;;;;;;5117792;27;20536;-72
2021/03/22 03:09:22;;;;;;;28.53;12.70;;;2.90;99.90;;;;;;5073199;28;20532;-73
2021/03/22 03:11:49;;;;;;;22.27;12.03;;;2.90;99.90;;;;;;5098115;28;20530;-73
2021/03/22 03:14:16;;;;;;;28.33;13.50;;;2.80;99.90;;;;;;5100619;28;20461;-73
2021/03/22 03:16:43;;;;;;;20.23;12.30;;;2.90;99.90;;;;;;5098483;28;20462;-74
2021/03/22 03:19:10;;;;;;;22.87;11.70;;;2.90;99.90;;;;;;5102763;28;20934;-73
2021/03/22 03:21:38;;;;;;;16.90;11.33;;;3.00;99.90;;;;;;5101184;28;20522;-74
2021/03/22 03:24:09;;;;;;;27.10;12.20;;;3.10;99.90;;;;;;5096829;28;20490;-75
2021/03/22 03:26:35;;;;;;;21.93;11.83;;;3.20;99.90;;;;;;5099858;28;20465;-73
2021/03/22 03:29:05;;;;;;;19.00;11.77;;;3.30;99.90;;;;;;5101347;28;20461;-74
2021/03/22 03:31:34;;;;;;;22.07;11.93;;;3.40;99.90;;;;;;5098379;28;20544;-72
2021/03/22 03:34:01;;;;;;;19.33;10.90;;;3.40;99.90;;;;;;5103559;28;20871;-72
2021/03/22 03:36:27;;;;;;;33.57;12.00;;;3.40;99.90;;;;;;5096477;28;20544;-74
2021/03/22 03:38:54;;;;;;;23.77;11.53;;;3.50;99.90;;;;;;5097725;28;20956;-74
2021/03/22 03:41:21;;;;;;;30.00;12.17;;;3.50;99.90;;;;;;5098571;28;20458;-72
2021/03/22 03:43:47;;;;;;;42.53;12.23;;;3.40;99.90;;;;;;5098007;28;21020;-73
2021/03/22 03:46:14;;;;;;;31.60;12.90;;;3.60;99.90;;;;;;5100944;28;20454;-76
2021/03/22 03:48:42;;;;;;;22.67;12.23;;;3.70;99.90;;;;;;5094336;28;20461;-73
2021/03/22 03:51:08;;;;;;;24.00;13.20;;;3.60;99.90;;;;;;5095567;28;20460;-73
2021/03/22 03:53:35;;;;;;;40.37;13.57;;;3.60;99.90;;;;;;5099534;28;21014;-73
2021/03/22 03:56:05;;;;;;;22.03;13.00;;;3.70;99.90;;;;;;5100288;28;20461;-73
2021/03/22 03:58:32;;;;;;;29.43;14.07;;;3.70;99.90;;;;;;5097210;28;20455;-74
2021/03/22 04:00:59;;;;;;;23.63;12.27;;;3.70;99.90;;;;;;5093771;28;21091;-74
2021/03/22 04:03:29;;;;;;;18.37;13.70;;;3.60;99.90;;;;;;5090298;28;20824;-75
2021/03/22 04:06:00;;;;;;;15.57;13.13;;;3.50;99.90;;;;;;5095982;28;20984;-74
2021/03/22 04:08:28;;;;;;;33.17;13.80;;;3.30;99.90;;;;;;5114197;28;20476;-75
2021/03/22 04:10:57;;;;;;;34.03;13.63;;;3.20;99.90;;;;;;5114940;28;20457;-74
2021/03/22 04:13:24;;;;;;;22.53;14.10;;;3.10;99.90;;;;;;5122170;28;21315;-75
2021/03/22 04:15:52;;;;;;;19.37;12.70;;;3.10;99.90;;;;;;5114374;28;20951;-75
2021/03/22 04:18:19;;;;;;;16.43;13.17;;;3.00;99.90;;;;;;5116547;28;20457;-75
2021/03/22 04:20:45;;;;;;;21.73;14.07;;;2.90;99.90;;;;;;5120995;28;20986;-72
2021/03/22 04:23:13;;;;;;;18.70;13.63;;;2.70;99.90;;;;;;5119536;28;20502;-74
2021/03/22 04:25:39;;;;;;;23.77;13.63;;;2.60;99.90;;;;;;5117561;28;20777;-73
2021/03/22 04:28:06;;;;;;;28.60;13.57;;;2.60;99.90;;;;;;5116304;28;20468;-72
2021/03/22 04:30:35;;;;;;;30.20;13.30;;;2.60;99.90;;;;;;5119664;28;20475;-76
2021/03/22 04:33:02;;;;;;;27.80;14.13;;;2.40;99.90;;;;;;5120464;28;20784;-72
2021/03/22 04:35:29;;;;;;;36.00;14.53;;;2.40;99.90;;;;;;5120216;28;20456;-73
2021/03/22 04:37:55;;;;;;;20.37;13.63;;;2.30;99.90;;;;;;5119947;27;20514;-72
2021/03/22 04:40:24;;;;;;;19.90;12.20;;;2.30;99.90;;;;;;5124183;27;20459;-76
2021/03/22 04:42:51;;;;;;;31.27;13.80;;;2.30;99.90;;;;;;5126545;27;20465;-73
2021/03/22 04:45:21;;;;;;;25.63;13.50;;;2.40;99.90;;;;;;5120549;27;20467;-75
2021/03/22 04:47:48;;;;;;;30.17;12.90;;;2.50;99.90;;;;;;5120985;27;20457;-73
2021/03/22 04:50:19;;;;;;;29.20;13.10;;;2.60;99.90;;;;;;5123630;27;20517;-73
2021/03/22 04:52:46;;;;;;;26.20;13.10;;;2.70;99.90;;;;;;5121879;27;20496;-75
2021/03/22 04:55:12;;;;;;;19.10;12.67;;;2.90;99.90;;;;;;5119317;27;20465;-75
2021/03/22 04:57:39;;;;;;;24.40;13.53;;;3.00;99.90;;;;;;5123170;27;20478;-73
2021/03/22 05:00:10;;;;;;;30.70;12.37;;;3.00;99.90;;;;;;5119722;27;20459;-73
2021/03/22 05:02:37;;;;;;;33.67;13.43;;;3.00;99.90;;;;;;5123257;27;20460;-75
2021/03/22 05:05:04;;;;;;;33.77;14.73;;;3.00;99.90;;;;;;5115798;27;20457;-71
2021/03/22 05:07:31;;;;;;;22.97;13.23;;;3.00;99.90;;;;;;5121831;27;20554;-73
2021/03/22 05:09:58;;;;;;;25.93;12.80;;;3.00;99.90;;;;;;5119259;27;20472;-71
2021/03/22 05:12:24;;;;;;;20.60;13.67;;;3.10;99.90;;;;;;5122799;27;20565;-72
2021/03/22 05:14:50;;;;;;;30.00;14.47;;;3.20;99.90;;;;;;5119673;27;20457;-73
2021/03/22 05:17:17;;;;;;;33.73;15.30;;;3.20;99.90;;;;;;5116143;27;20678;-73
2021/03/22 05:19:44;;;;;;;47.00;17.63;;;3.20;99.90;;;;;;5119983;27;20596;-71
2021/03/22 05:22:11;;;;;;;26.63;14.60;;;3.20;99.90;;;;;;5126488;27;20470;-71
2021/03/22 05:24:38;;;;;;;33.43;17.07;;;3.20;99.90;;;;;;5119746;27;21006;-71
2021/03/22 05:27:06;;;;;;;25.10;13.70;;;3.30;99.90;;;;;;5123627;27;20464;-73
2021/03/22 05:29:32;;;;;;;25.70;14.03;;;3.40;99.90;;;;;;5120740;27;20465;-74
2021/03/22 05:32:00;;;;;;;23.03;14.67;;;3.40;99.90;;;;;;5119146;27;20453;-73
2021/03/22 05:34:26;;;;;;;27.80;15.20;;;3.40;99.90;;;;;;5125449;27;20838;-75
2021/03/22 05:36:53;;;;;;;31.93;16.67;;;3.40;99.90;;;;;;5119846;27;20446;-72
2021/03/22 05:39:20;;;;;;;29.50;16.70;;;3.40;99.90;;;;;;5117486;27;20976;-74
2021/03/22 05:41:58;;;;;;;28.27;15.23;;;3.30;99.90;;;;;;5119674;27;20449;-73
2021/03/22 05:44:46;;;;;;;24.40;15.40;;;3.20;99.90;;;;;;5117868;27;20871;-75
2021/03/22 05:47:21;;;;;;;30.30;16.40;;;3.20;99.90;;;;;;5122534;27;20978;-71
2021/03/22 05:49:59;;;;;;;20.40;16.50;;;3.30;99.90;;;;;;5117614;27;20463;-73
2021/03/22 05:52:52;;;;;;;30.97;17.47;;;3.20;99.90;;;;;;5112435;27;20575;-72
2021/03/22 05:55:53;;;;;;;28.90;15.97;;;3.20;99.90;;;;;;5122414;27;20455;-73
2021/03/22 05:58:41;;;;;;;35.90;17.07;;;3.10;99.90;;;;;;5119584;27;20464;-73
2021/03/22 06:01:21;;;;;;;32.03;17.07;;;3.10;99.90;;;;;;5112070;27;20551;-73
2021/03/22 06:03:52;;;;;;;34.20;18.27;;;3.10;99.90;;;;;;5116545;27;20464;-71
2021/03/22 06:06:23;;;;;;;28.77;16.63;;;3.10;99.90;;;;;;5117573;27;20464;-71
2021/03/22 06:08:55;;;;;;;31.07;19.70;;;3.10;99.90;;;;;;5113270;27;20521;-74
2021/03/22 06:11:30;;;;;;;26.67;17.10;;;3.10;99.90;;;;;;5115253;27;20480;-73
2021/03/22 06:14:01;;;;;;;25.70;17.30;;;3.00;99.90;;;;;;5113619;27;20582;-71
2021/03/22 06:16:32;;;;;;;39.67;17.27;;;3.10;99.90;;;;;;5111501;27;20664;-73
2021/03/22 06:19:02;;;;;;;41.10;17.47;;;3.00;99.90;;;;;;5120313;27;20487;-71
2021/03/22 06:21:32;;;;;;;36.67;19.40;;;3.00;99.90;;;;;;5120204;27;20499;-72
2021/03/22 06:23:59;;;;;;;36.93;15.87;;;3.20;99.90;;;;;;5119090;27;20521;-72
2021/03/22 06:26:39;;;;;;;31.67;17.17;;;3.20;99.90;;;;;;5117030;27;20507;-71
2021/03/22 06:29:12;;;;;;;21.83;17.17;;;3.40;99.90;;;;;;5114878;27;20460;-70
2021/03/22 06:31:41;;;;;;;28.83;16.07;;;3.50;99.90;;;;;;5111212;27;20464;-72
2021/03/22 06:34:10;;;;;;;40.60;17.20;;;3.50;99.90;;;;;;5110726;27;20556;-72
2021/03/22 06:36:36;;;;;;;36.13;16.17;;;3.60;99.90;;;;;;5113634;27;20517;-70
2021/03/22 06:39:07;;;;;;;30.60;18.37;;;3.60;99.90;;;;;;5098895;28;20483;-71
2021/03/22 06:41:41;;;;;;;28.03;18.07;;;3.80;99.90;;;;;;5107159;27;20461;-72
2021/03/22 06:44:11;;;;;;;40.43;21.40;;;3.80;99.90;;;;;;5104457;27;21038;-71
2021/03/22 06:46:53;;;;;;;31.03;19.90;;;3.90;99.90;;;;;;5100739;27;20497;-71
2021/03/22 06:49:23;;;;;;;45.07;25.67;;;3.90;99.90;;;;;;5099610;27;20857;-69
2021/03/22 06:52:00;;;;;;;40.87;27.43;;;4.00;99.90;;;;;;5113546;27;20482;-71
2021/03/22 06:54:38;;;;;;;38.07;26.10;;;4.00;99.90;;;;;;5103525;27;20559;-70
2021/03/22 06:57:09;;;;;;;29.40;26.23;;;4.00;99.90;;;;;;5100924;27;20934;-73
2021/03/22 06:59:36;;;;;;;32.67;25.77;;;4.00;99.90;;;;;;5103100;27;20460;-74
2021/03/22 07:02:20;;;;;;;45.43;25.37;;;4.00;99.90;;;;;;5097777;27;21058;-70
2021/03/22 07:04:46;;;;;;;26.00;23.50;;;4.10;99.90;;;;;;5099913;27;20465;-74
2021/03/22 07:07:16;;;;;;;34.93;26.50;;;4.20;99.90;;;;;;5097627;27;21317;-72
2021/03/22 07:09:46;;;;;;;35.60;25.80;;;4.20;99.90;;;;;;5099465;27;20919;-73
2021/03/22 07:12:26;;;;;;;30.90;25.20;;;4.20;99.90;;;;;;5103283;27;20487;-71
2021/03/22 07:14:53;;;;;;;40.00;26.20;;;4.20;99.90;;;;;;5107314;27;20823;-73
2021/03/22 07:17:22;;;;;;;40.37;25.47;;;4.20;99.90;;;;;;5103417;27;20637;-73
2021/03/22 07:20:12;;;;;;;52.87;26.37;;;4.20;99.90;;;;;;5104568;27;20472;-72
2021/03/22 07:22:39;;;;;;;35.07;26.93;;;4.20;99.90;;;;;;5098775;27;20497;-71
2021/03/22 07:25:18;;;;;;;36.80;25.70;;;4.20;99.90;;;;;;5103518;27;20478;-71
2021/03/22 07:27:50;;;;;;;44.53;26.13;;;4.20;99.90;;;;;;5105112;28;20822;-71
2021/03/22 07:30:28;;;;;;;42.27;25.37;;;4.10;99.90;;;;;;5100747;27;20552;-73
2021/03/22 07:33:14;;;;;;;39.50;25.50;;;4.10;99.90;;;;;;5109085;27;20484;-72
2021/03/22 07:36:15;;;;;;;28.20;23.83;;;4.10;99.90;;;;;;5101170;27;20461;-72
2021/03/22 07:38:55;;;;;;;30.13;23.70;;;4.20;99.90;;;;;;5107203;27;20483;-72
2021/03/22 07:41:29;;;;;;;47.50;24.70;;;4.30;99.90;;;;;;5109887;27;20813;-72
2021/03/22 07:44:20;;;;;;;30.63;25.30;;;4.40;99.90;;;;;;5110448;28;20842;-72
2021/03/22 07:47:01;;;;;;;26.00;23.30;;;4.40;99.90;;;;;;5108820;28;20457;-73
2021/03/22 07:49:41;;;;;;;38.70;25.47;;;4.60;99.90;;;;;;5102880;28;20461;-73
2021/03/22 07:52:26;;;;;;;34.73;23.20;;;4.60;99.90;;;;;;5109120;28;20461;-73
2021/03/22 07:55:02;;;;;;;27.60;23.23;;;4.70;99.90;;;;;;5104627;28;20823;-73
2021/03/22 07:57:39;;;;;;;24.03;21.43;;;4.80;99.90;;;;;;5110411;28;20487;-73
2021/03/22 08:00:19;;;;;;;25.83;23.13;;;4.90;99.90;;;;;;5110270;28;20453;-71
2021/03/22 08:03:18;;;;;;;23.10;21.10;;;5.00;99.90;;;;;;5101021;28;20468;-73
2021/03/22 08:05:57;;;;;;;25.07;22.03;;;5.20;99.90;;;;;;5105619;28;20459;-73
2021/03/22 08:08:34;;;;;;;22.97;20.77;;;5.30;99.90;;;;;;5106140;28;20528;-71
2021/03/22 08:11:06;;;;;;;27.53;21.20;;;5.30;99.90;;;;;;5099942;28;20474;-72
2021/03/22 08:13:43;;;;;;;28.23;21.30;;;5.40;99.90;;;;;;5110477;27;20609;-74
2021/03/22 08:16:49;;;;;;;35.53;20.93;;;5.40;99.90;;;;;;5111095;27;20456;-73
2021/03/22 08:19:21;;;;;;;22.17;19.87;;;5.50;99.90;;;;;;5027224;28;21255;-73
2021/03/22 08:21:58;;;;;;;25.10;22.40;;;5.50;99.90;;;;;;5021946;28;20514;-75
2021/03/22 08:24:29;;;;;;;23.43;19.57;;;5.40;99.90;;;;;;5063414;27;20500;-72
2021/03/22 08:27:02;;;;;;;32.20;19.10;;;5.40;99.90;;;;;;5103974;27;20449;-74
2021/03/22 08:29:32;;;;;;;24.80;21.77;;;5.50;99.90;;;;;;5101838;27;20555;-72
2021/03/22 08:32:27;;;;;;;23.00;19.63;;;5.60;99.90;;;;;;5104919;27;20861;-74
2021/03/22 08:35:01;;;;;;;29.00;22.63;;;5.60;99.90;;;;;;5115331;27;20457;-73
2021/03/22 08:37:35;;;;;;;33.80;22.27;;;5.70;99.90;;;;;;5113269;27;20467;-73
2021/03/22 08:40:07;;;;;;;32.10;20.60;;;5.70;99.90;;;;;;5110703;27;20462;-74
2021/03/22 08:42:40;;;;;;;23.93;20.20;;;5.80;99.90;;;;;;5112051;27;20553;-72
2021/03/22 08:45:16;;;;;;;22.63;20.63;;;6.10;99.90;;;;;;5108354;27;20460;-73
2021/03/22 08:47:47;;;;;;;21.33;19.33;;;6.20;99.90;;;;;;5103419;27;20469;-74
2021/03/22 08:50:17;;;;;;;22.10;19.90;;;6.20;99.90;;;;;;5105511;27;20706;-71
2021/03/22 08:52:54;;;;;;;25.60;20.20;;;6.40;99.90;;;;;;5103966;27;20610;-75
2021/03/22 08:55:22;;;;;;;27.60;18.60;;;6.70;99.90;;;;;;5109683;27;20464;-74
2021/03/22 08:57:56;;;;;;;23.97;20.23;;;6.70;99.90;;;;;;5109336;27;20465;-73
2021/03/22 09:00:29;;;;;;;22.57;20.20;;;6.70;99.90;;;;;;5113640;27;20479;-71
2021/03/22 09:02:58;;;;;;;22.63;18.63;;;6.70;99.90;;;;;;5108775;27;20496;-74
2021/03/22 09:05:29;;;;;;;19.67;17.83;;;6.70;99.90;;;;;;5110866;27;20555;-74
2021/03/22 09:08:22;;;;;;;19.80;18.03;;;6.60;99.90;;;;;;5108290;27;20489;-72
2021/03/22 09:11:13;;;;;;;27.10;16.83;;;6.40;99.90;;;;;;5110703;27;20457;-74
2021/03/22 09:13:51;;;;;;;20.00;15.30;;;6.70;99.90;;;;;;5108824;27;20926;-74
2021/03/22 09:16:41;;;;;;;16.20;15.33;;;7.00;99.90;;;;;;5107319;27;20559;-72
2021/03/22 09:19:30;;;;;;;18.37;16.80;;;7.30;99.90;;;;;;5107246;27;20477;-75
2021/03/22 09:22:34;;;;;;;17.93;16.43;;;7.70;99.90;;;;;;5099565;27;20480;-73
2021/03/22 09:25:01;;;;;;;18.03;16.63;;;7.70;99.90;;;;;;5104480;27;20464;-74
2021/03/22 09:27:33;;;;;;;18.77;16.70;;;7.90;99.90;;;;;;5107119;27;20559;-73
2021/03/22 09:30:31;;;;;;;17.43;15.77;;;7.80;99.90;;;;;;5105297;27;20461;-71
2021/03/22 09:32:57;;;;;;;17.23;16.00;;;7.70;99.90;;;;;;5108372;27;20494;-72
2021/03/22 09:35:50;;;;;;;16.53;15.50;;;7.60;99.90;;;;;;5120208;27;20456;-72
2021/03/22 09:38:39;;;;;;;18.40;16.70;;;7.90;99.90;;;;;;5110070;27;20524;-72
2021/03/22 09:41:06;;;;;;;19.00;17.10;;;8.30;99.90;;;;;;5116877;27;20500;-74
2021/03/22 09:43:56;;;;;;;19.60;17.87;;;8.40;99.90;;;;;;5110766;27;20471;-74
2021/03/22 09:46:36;;;;;;;19.03;17.27;;;8.40;99.90;;;;;;5099577;27;20471;-73
2021/03/22 09:49:19;;;;;;;17.43;16.13;;;8.40;99.90;;;;;;5105854;27;20461;-75
2021/03/22 09:51:49;;;;;;;17.40;16.20;;;7.80;99.90;;;;;;5108686;27;20461;-76
2021/03/22 09:54:42;;;;;;;16.30;15.20;;;7.60;99.90;;;;;;5101369;27;20495;-76
2021/03/22 09:57:34;;;;;;;18.00;16.50;;;7.50;99.90;;;;;;5102679;27;20466;-76
2021/03/22 10:00:18;;;;;;;16.40;15.30;;;7.50;99.90;;;;;;5100196;27;20459;-72
2021/03/22 10:02:49;;;;;;;17.57;15.77;;;7.40;99.90;;;;;;5103976;27;21142;-74
2021/03/22 10:05:17;;;;;;;19.33;17.33;;;7.50;99.90;;;;;;5103291;27;20578;-74
2021/03/22 10:08:03;;;;;;;20.00;16.53;;;7.50;99.90;;;;;;5114147;27;20482;-72
2021/03/22 10:10:35;;;;;;;18.03;16.73;;;7.50;99.90;;;;;;5112985;27;20470;-76
2021/03/22 10:13:08;;;;;;;19.03;16.50;;;7.50;99.90;;;;;;5103689;27;20903;-75
2021/03/22 10:15:46;;;;;;;17.77;15.90;;;7.50;99.90;;;;;;5103206;27;20465;-75
2021/03/22 10:18:21;;;;;;;17.57;16.17;;;7.40;99.90;;;;;;5098805;27;20461;-74
2021/03/22 10:20:50;;;;;;;18.50;16.63;;;7.50;99.90;;;;;;5101511;27;20477;-75
2021/03/22 10:23:23;;;;;;;18.20;16.37;;;7.50;99.90;;;;;;5104201;27;20692;-74
2021/03/22 10:25:53;;;;;;;20.37;17.90;;;7.60;99.90;;;;;;5107815;27;20463;-75
2021/03/22 10:28:23;;;;;;;18.70;16.60;;;7.40;99.90;;;;;;5105407;27;20463;-75
2021/03/22 10:30:59;;;;;;;18.60;17.10;;;7.50;99.90;;;;;;5108415;27;20463;-74
2021/03/22 10:33:27;;;;;;;18.00;16.60;;;7.60;99.90;;;;;;5104089;27;20488;-76
2021/03/22 10:35:56;;;;;;;20.20;18.50;;;7.80;99.90;;;;;;5109180;27;20843;-73
2021/03/22 10:38:26;;;;;;;16.33;15.13;;;7.90;99.90;;;;;;5105175;27;20463;-76
2021/03/22 10:40:54;;;;;;;16.70;15.00;;;7.90;99.90;;;;;;5112816;27;20844;-75
2021/03/22 10:43:25;;;;;;;17.20;15.80;;;7.90;99.90;;;;;;5109565;27;20464;-75
2021/03/22 10:45:52;;;;;;;15.90;14.90;;;8.00;99.90;;;;;;5109830;27;21019;-76
2021/03/22 10:48:25;;;;;;;17.33;15.80;;;8.10;99.90;;;;;;5111499;27;20460;-72
2021/03/22 10:51:09;;;;;;;16.83;15.20;;;8.10;99.90;;;;;;5105702;27;20464;-74
2021/03/22 10:53:52;;;;;;;17.37;15.57;;;8.10;99.90;;;;;;5109077;27;21478;-73
2021/03/22 10:56:23;;;;;;;16.03;14.93;;;8.30;99.90;;;;;;5110745;27;20482;-74
2021/03/22 10:58:50;;;;;;;17.33;15.73;;;8.40;99.90;;;;;;5105998;27;20944;-76
2021/03/22 11:01:19;;;;;;;15.43;14.30;;;8.30;99.90;;;;;;5099752;27;20514;-73
2021/03/22 11:03:49;;;;;;;16.23;15.23;;;8.30;99.90;;;;;;5108750;27;20475;-72
2021/03/22 11:06:29;;;;;;;15.67;14.40;;;8.30;99.90;;;;;;5112527;27;20501;-73
2021/03/22 11:08:59;;;;;;;16.63;15.43;;;8.40;99.90;;;;;;5100435;27;20467;-75
2021/03/22 11:11:30;;;;;;;17.00;15.70;;;8.70;99.90;;;;;;5103433;27;20463;-72
2021/03/22 11:14:01;;;;;;;16.63;15.33;;;8.90;99.90;;;;;;5104324;27;20508;-76
2021/03/22 11:16:30;;;;;;;17.03;15.83;;;8.90;99.90;;;;;;5096066;28;21001;-74
2021/03/22 11:18:57;;;;;;;17.10;15.80;;;9.00;99.90;;;;;;5110944;27;20468;-75
2021/03/22 11:21:27;;;;;;;17.13;15.93;;;8.80;99.90;;;;;;5107395;27;20962;-74
2021/03/22 11:23:58;;;;;;;16.60;15.47;;;8.70;99.90;;;;;;5113023;27;20464;-75
2021/03/22 11:26:28;;;;;;;16.43;15.40;;;8.40;99.90;;;;;;5110428;27;20456;-73
2021/03/22 11:29:17;;;;;;;15.53;14.70;;;8.40;99.90;;;;;;5106467;27;20550;-76
2021/03/22 11:31:46;;;;;;;15.93;14.80;;;8.20;99.90;;;;;;5108458;27;20473;-72
2021/03/22 11:34:20;;;;;;;16.40;15.40;;;8.10;99.90;;;;;;5111541;27;20531;-76
2021/03/22 11:36:48;;;;;;;15.40;14.53;;;8.00;99.90;;;;;;5114334;27;20872;-75
2021/03/22 11:39:24;;;;;;;17.23;15.80;;;7.80;99.90;;;;;;5112457;27;20460;-76
2021/03/22 11:42:19;;;;;;;16.53;15.33;;;7.70;99.90;;;;;;5109773;27;20463;-76
2021/03/22 11:44:46;;;;;;;18.50;14.60;;;7.80;99.90;;;;;;5095703;28;20534;-74
2021/03/22 11:47:40;;;;;;;16.07;14.87;;;7.90;99.90;;;;;;5098807;28;20920;-74
2021/03/22 11:50:36;;;;;;;14.73;13.97;;;7.80;99.90;;;;;;5103623;28;20465;-72
2021/03/22 11:53:07;;;;;;;15.87;14.80;;;7.80;99.90;;;;;;5106320;28;20991;-74
2021/03/22 11:55:38;;;;;;;14.77;13.70;;;7.80;99.90;;;;;;5112631;28;20529;-75
2021/03/22 11:58:16;;;;;;;16.03;14.73;;;7.80;99.90;;;;;;5104503;28;20452;-73
2021/03/22 12:00:42;;;;;;;14.93;14.03;;;7.90;99.90;;;;;;5104049;28;20457;-74
2021/03/22 12:03:25;;;;;;;15.47;14.53;;;8.10;99.90;;;;;;5107489;28;20449;-75
2021/03/22 12:06:05;;;;;;;15.37;14.07;;;8.20;99.90;;;;;;5100595;28;20465;-72
2021/03/22 12:08:33;;;;;;;15.17;14.20;;;8.30;99.90;;;;;;5111178;28;20601;-74
2021/03/22 12:11:00;;;;;;;16.80;15.20;;;8.40;99.90;;;;;;5108270;28;20449;-74
2021/03/22 12:13:28;;;;;;;15.77;14.60;;;8.50;99.90;;;;;;5107840;28;20488;-72
2021/03/22 12:15:54;;;;;;;16.03;15.20;;;8.60;99.90;;;;;;5098561;28;20453;-73
2021/03/22 12:18:26;;;;;;;16.50;15.40;;;8.70;99.90;;;;;;5106481;28;20462;-75
2021/03/22 12:20:53;;;;;;;16.00;14.60;;;8.70;99.90;;;;;;5107368;28;20492;-72
2021/03/22 12:23:19;;;;;;;16.13;15.10;;;8.90;99.90;;;;;;5112346;28;20966;-75
2021/03/22 12:25:46;;;;;;;16.00;14.93;;;9.00;99.90;;;;;;5108075;28;20464;-71
2021/03/22 12:28:12;;;;;;;16.03;15.03;;;9.30;99.90;;;;;;5106948;28;22426;-75
2021/03/22 12:30:40;;;;;;;16.20;14.80;;;9.40;99.90;;;;;;5103145;28;20458;-72
2021/03/22 12:33:07;;;;;;;15.67;14.67;;;9.50;99.90;;;;;;5109664;28;21023;-73
2021/03/22 12:35:37;;;;;;;15.50;14.60;;;9.70;99.90;;;;;;5114302;28;20477;-76
2021/03/22 12:38:05;;;;;;;14.93;14.13;;;9.60;99.90;;;;;;5107311;28;20469;-75
2021/03/22 12:40:33;;;;;;;15.33;14.43;;;9.40;99.90;;;;;;5108312;28;20999;-72
2021/03/22 12:43:00;;;;;;;15.77;14.73;;;9.40;99.90;;;;;;5107246;28;20503;-75
2021/03/22 12:45:29;;;;;;;16.10;14.87;;;9.20;99.90;;;;;;5111810;28;20562;-72
2021/03/22 12:47:58;;;;;;;15.10;14.30;;;9.20;99.90;;;;;;5111013;28;20499;-72
2021/03/22 12:50:27;;;;;;;16.63;15.23;;;9.10;99.90;;;;;;5106615;28;20865;-72
2021/03/22 12:52:55;;;;;;;16.93;15.47;;;8.90;99.90;;;;;;5107227;28;20473;-73
2021/03/22 12:55:23;;;;;;;16.20;15.00;;;8.80;99.90;;;;;;5107610;28;20468;-72
2021/03/22 12:57:50;;;;;;;16.40;15.00;;;8.80;99.90;;;;;;5105776;27;21118;-72
2021/03/22 13:00:19;;;;;;;17.50;16.10;;;8.80;99.90;;;;;;5113348;27;20453;-72
2021/03/22 13:02:46;;;;;;;16.67;15.37;;;8.90;99.90;;;;;;5113456;27;20845;-72
2021/03/22 13:05:19;;;;;;;22.60;15.47;;;8.90;99.90;;;;;;5116391;27;20452;-75